createdAt,value
2023-02-02T00:00:34.247Z,855
2023-02-02T00:01:34.061Z,901
2023-02-02T00:02:34.239Z,653
2023-02-02T00:03:34.171Z,549
2023-02-02T00:05:34.305Z,671
2023-02-02T00:06:34.137Z,747
2023-02-02T00:07:34.099Z,626
2023-02-02T00:08:34.063Z,689
2023-02-02T00:10:34.255Z,874
2023-02-02T00:11:34.109Z,901
2023-02-02T00:12:34.133Z,541
2023-02-02T00:13:34.107Z,835
2023-02-02T00:15:34.307Z,960
2023-02-02T00:16:34.245Z,617
2023-02-02T00:17:34.098Z,687
2023-02-02T00:18:34.108Z,501
2023-02-02T00:20:34.307Z,815
2023-02-02T00:21:34.071Z,631
2023-02-02T00:22:34.059Z,909
2023-02-02T00:23:34.094Z,720
2023-02-02T00:25:34.331Z,594
2023-02-02T00:26:34.158Z,646
2023-02-02T00:27:34.113Z,797
2023-02-02T00:28:34.059Z,885
2023-02-02T00:30:34.273Z,646
2023-02-02T00:31:34.197Z,534
2023-02-02T00:32:34.111Z,712
2023-02-02T00:33:34.118Z,446
2023-02-02T00:35:34.337Z,614
2023-02-02T00:36:34.113Z,745
2023-02-02T00:37:34.121Z,606
2023-02-02T00:38:34.067Z,523
2023-02-02T00:40:34.252Z,666
2023-02-02T00:41:34.118Z,753
2023-02-02T00:42:34.131Z,808
2023-02-02T00:43:34.111Z,548
2023-02-02T00:45:34.329Z,620
2023-02-02T00:46:34.074Z,589
2023-02-02T00:47:34.107Z,698
2023-02-02T00:48:34.114Z,647
2023-02-02T00:50:34.320Z,674
2023-02-02T00:51:34.117Z,712
2023-02-02T00:52:34.126Z,770
2023-02-02T00:53:34.154Z,689
2023-02-02T00:55:34.349Z,596
2023-02-02T00:56:34.073Z,534
2023-02-02T00:57:34.143Z,786
2023-02-02T00:58:34.078Z,786
2023-02-02T01:00:34.278Z,768
2023-02-02T01:01:34.113Z,634
2023-02-02T01:02:34.144Z,481
2023-02-02T01:03:34.111Z,481
2023-02-02T01:05:34.285Z,481
2023-02-02T01:06:34.095Z,580
2023-02-02T01:07:34.120Z,580
2023-02-02T01:08:34.088Z,765
2023-02-02T01:10:34.256Z,759
2023-02-02T01:11:34.080Z,683
2023-02-02T01:12:34.113Z,698
2023-02-02T01:13:34.084Z,698
2023-02-02T01:15:34.273Z,643
2023-02-02T01:16:34.128Z,712
2023-02-02T01:17:34.123Z,534
2023-02-02T01:18:34.089Z,1052
2023-02-02T01:20:34.273Z,743
2023-02-02T01:21:34.125Z,517
2023-02-02T01:22:34.121Z,541
2023-02-02T01:23:34.075Z,682
2023-02-02T01:25:34.285Z,618
2023-02-02T01:26:34.106Z,700
2023-02-02T01:27:34.164Z,781
2023-02-02T01:28:34.132Z,555
2023-02-02T01:30:34.328Z,596
2023-02-02T01:31:34.189Z,783
2023-02-02T01:32:34.160Z,794
2023-02-02T01:33:34.126Z,770
2023-02-02T01:35:34.269Z,655
2023-02-02T01:36:34.092Z,565
2023-02-02T01:37:34.130Z,564
2023-02-02T01:38:34.159Z,701
2023-02-02T01:40:34.327Z,730
2023-02-02T01:41:34.130Z,745
2023-02-02T01:42:34.093Z,700
2023-02-02T01:43:34.128Z,715
2023-02-02T01:45:34.338Z,555
2023-02-02T01:46:34.150Z,506
2023-02-02T01:47:34.094Z,506
2023-02-02T01:48:34.089Z,672
2023-02-02T01:50:34.275Z,639
2023-02-02T01:51:34.093Z,626
2023-02-02T01:52:34.097Z,610
2023-02-02T01:53:34.098Z,639
2023-02-02T01:55:34.361Z,660
2023-02-02T01:56:34.136Z,687
2023-02-02T01:57:34.141Z,674
2023-02-02T01:58:34.090Z,655
2023-02-02T02:00:34.271Z,653
2023-02-02T02:01:34.172Z,571
2023-02-02T02:02:34.173Z,614
2023-02-02T02:03:34.098Z,675
2023-02-02T02:05:34.277Z,997
2023-02-02T02:06:34.097Z,1170
2023-02-02T02:07:34.131Z,738
2023-02-02T02:08:34.222Z,599
2023-02-02T02:10:34.279Z,855
2023-02-02T02:11:34.162Z,555
2023-02-02T02:12:34.096Z,556
2023-02-02T02:13:34.101Z,556
2023-02-02T02:15:34.338Z,738
2023-02-02T02:16:34.236Z,627
2023-02-02T02:17:34.104Z,501
2023-02-02T02:18:34.143Z,656
2023-02-02T02:20:34.343Z,706
2023-02-02T02:21:34.138Z,671
2023-02-02T02:22:34.139Z,759
2023-02-02T02:23:34.146Z,521
2023-02-02T02:25:34.367Z,584
2023-02-02T02:26:34.174Z,770
2023-02-02T02:27:34.137Z,589
2023-02-02T02:28:34.144Z,1186
2023-02-02T02:30:34.554Z,779
2023-02-02T02:31:34.297Z,658
2023-02-02T02:32:34.148Z,530
2023-02-02T02:33:34.118Z,490
2023-02-02T02:35:34.291Z,680
2023-02-02T02:36:34.101Z,624
2023-02-02T02:37:34.131Z,651
2023-02-02T02:38:34.152Z,599
2023-02-02T02:40:34.345Z,580
2023-02-02T02:41:34.152Z,580
2023-02-02T02:42:34.110Z,683
2023-02-02T02:43:34.157Z,526
2023-02-02T02:45:34.375Z,594
2023-02-02T02:46:34.162Z,803
2023-02-02T02:47:34.149Z,808
2023-02-02T02:48:34.158Z,747
2023-02-02T02:50:34.380Z,830
2023-02-02T02:51:34.158Z,734
2023-02-02T02:52:34.158Z,526
2023-02-02T02:53:34.161Z,538
2023-02-02T02:55:34.359Z,658
2023-02-02T02:56:34.178Z,832
2023-02-02T02:57:34.187Z,753
2023-02-02T02:58:34.155Z,597
2023-02-02T03:00:34.311Z,779
2023-02-02T03:01:34.167Z,745
2023-02-02T03:02:34.189Z,564
2023-02-02T03:03:34.147Z,614
2023-02-02T03:05:34.298Z,783
2023-02-02T03:06:34.115Z,832
2023-02-02T03:07:34.113Z,783
2023-02-02T03:08:34.114Z,808
2023-02-02T03:09:34.187Z,763
2023-02-02T03:10:34.299Z,683
2023-02-02T03:11:34.187Z,552
2023-02-02T03:12:34.117Z,591
2023-02-02T03:13:34.153Z,542
2023-02-02T03:15:34.352Z,553
2023-02-02T03:16:34.157Z,819
2023-02-02T03:17:34.117Z,812
2023-02-02T03:18:34.114Z,874
2023-02-02T03:20:34.300Z,830
2023-02-02T03:21:34.168Z,765
2023-02-02T03:22:34.188Z,549
2023-02-02T03:23:34.195Z,743
2023-02-02T03:25:34.386Z,940
2023-02-02T03:26:34.208Z,1137
2023-02-02T03:27:34.170Z,819
2023-02-02T03:28:34.198Z,627
2023-02-02T03:30:34.416Z,927
2023-02-02T03:31:34.172Z,1059
2023-02-02T03:32:34.129Z,899
2023-02-02T03:33:34.197Z,916
2023-02-02T03:35:34.299Z,852
2023-02-02T03:36:34.173Z,709
2023-02-02T03:37:34.172Z,634
2023-02-02T03:38:34.130Z,640
2023-02-02T03:40:34.316Z,634
2023-02-02T03:41:34.170Z,613
2023-02-02T03:42:34.165Z,613
2023-02-02T03:43:34.182Z,613
2023-02-02T03:45:34.309Z,613
2023-02-02T03:46:34.250Z,637
2023-02-02T03:47:34.123Z,613
2023-02-02T03:48:34.129Z,992
2023-02-02T03:50:34.313Z,726
2023-02-02T03:51:34.147Z,781
2023-02-02T03:52:34.204Z,1071
2023-02-02T03:53:34.183Z,862
2023-02-02T03:55:34.376Z,821
2023-02-02T03:56:34.134Z,1116
2023-02-02T03:57:34.141Z,1141
2023-02-02T03:58:34.178Z,1212
2023-02-02T03:59:34.187Z,1229
2023-02-02T04:00:34.402Z,1198
2023-02-02T04:01:34.195Z,830
2023-02-02T04:02:34.201Z,810
2023-02-02T04:03:34.177Z,819
2023-02-02T04:04:34.196Z,927
2023-02-02T04:05:34.397Z,888
2023-02-02T04:06:34.188Z,845
2023-02-02T04:07:34.183Z,946
2023-02-02T04:08:34.251Z,990
2023-02-02T04:09:34.207Z,892
2023-02-02T04:10:34.409Z,1034
2023-02-02T04:11:34.190Z,666
2023-02-02T04:12:34.193Z,604
2023-02-02T04:13:34.211Z,613
2023-02-02T04:15:34.397Z,655
2023-02-02T04:16:34.183Z,821
2023-02-02T04:17:34.146Z,614
2023-02-02T04:18:34.139Z,1121
2023-02-02T04:20:34.321Z,906
2023-02-02T04:21:34.146Z,1002
2023-02-02T04:22:34.174Z,949
2023-02-02T04:23:34.141Z,1018
2023-02-02T04:25:34.339Z,1500
2023-02-02T04:26:34.193Z,1179
2023-02-02T04:27:34.317Z,1154
2023-02-02T04:28:34.139Z,1007
2023-02-02T04:30:34.350Z,962
2023-02-02T04:31:34.218Z,1173
2023-02-02T04:32:34.192Z,927
2023-02-02T04:33:34.221Z,911
2023-02-02T04:34:34.194Z,925
2023-02-02T04:35:34.329Z,1261
2023-02-02T04:36:34.140Z,1273
2023-02-02T04:37:34.157Z,1273
2023-02-02T04:38:34.158Z,1179
2023-02-02T04:39:34.195Z,1401
2023-02-02T04:40:34.331Z,1492
2023-02-02T04:41:34.155Z,1478
2023-02-02T04:42:34.155Z,741
2023-02-02T04:43:34.156Z,650
2023-02-02T04:45:34.408Z,733
2023-02-02T04:46:34.159Z,1288
2023-02-02T04:47:34.196Z,862
2023-02-02T04:48:34.203Z,882
2023-02-02T04:49:34.222Z,914
2023-02-02T04:50:34.410Z,901
2023-02-02T04:51:34.200Z,888
2023-02-02T04:52:34.198Z,951
2023-02-02T04:53:34.193Z,1758
2023-02-02T04:54:34.199Z,1183
2023-02-02T04:55:34.402Z,1344
2023-02-02T04:56:34.203Z,1186
2023-02-02T04:57:34.208Z,1027
2023-02-02T04:58:34.199Z,906
2023-02-02T04:59:34.204Z,1116
2023-02-02T05:00:34.350Z,1002
2023-02-02T05:01:34.207Z,1075
2023-02-02T05:02:34.162Z,986
2023-02-02T05:03:34.205Z,951
2023-02-02T05:04:34.264Z,872
2023-02-02T05:05:34.386Z,1355
2023-02-02T05:06:34.157Z,1078
2023-02-02T05:07:34.203Z,1116
2023-02-02T05:08:34.256Z,1007
2023-02-02T05:09:34.204Z,1170
2023-02-02T05:10:34.431Z,1229
2023-02-02T05:11:34.236Z,1150
2023-02-02T05:12:34.159Z,1093
2023-02-02T05:13:34.201Z,1082
2023-02-02T05:14:34.193Z,835
2023-02-02T05:15:34.436Z,1246
2023-02-02T05:16:34.235Z,1161
2023-02-02T05:17:34.163Z,944
2023-02-02T05:18:34.212Z,1093
2023-02-02T05:19:34.196Z,1007
2023-02-02T05:20:34.406Z,1532
2023-02-02T05:21:34.208Z,870
2023-02-02T05:22:34.165Z,751
2023-02-02T05:23:34.204Z,680
2023-02-02T05:24:34.246Z,666
2023-02-02T05:25:34.360Z,683
2023-02-02T05:26:34.203Z,1056
2023-02-02T05:27:34.206Z,974
2023-02-02T05:28:34.161Z,759
2023-02-02T05:30:34.416Z,803
2023-02-02T05:31:34.192Z,821
2023-02-02T05:32:34.166Z,1082
2023-02-02T05:33:34.212Z,842
2023-02-02T05:35:34.358Z,1246
2023-02-02T05:36:34.169Z,949
2023-02-02T05:37:34.176Z,1062
2023-02-02T05:38:34.206Z,1465
2023-02-02T05:40:34.365Z,969
2023-02-02T05:41:34.207Z,949
2023-02-02T05:42:34.167Z,1056
2023-02-02T05:43:34.212Z,1144
2023-02-02T05:45:34.385Z,878
2023-02-02T05:46:34.175Z,706
2023-02-02T05:47:34.172Z,674
2023-02-02T05:48:34.216Z,672
2023-02-02T05:50:34.414Z,1088
2023-02-02T05:51:34.235Z,1299
2023-02-02T05:52:34.169Z,1339
2023-02-02T05:53:34.216Z,1246
2023-02-02T05:55:34.420Z,1322
2023-02-02T05:56:34.177Z,1604
2023-02-02T05:57:34.179Z,1134
2023-02-02T05:58:34.173Z,1031
2023-02-02T05:59:34.262Z,927
2023-02-02T06:00:34.365Z,962
2023-02-02T06:01:34.223Z,1082
2023-02-02T06:02:34.220Z,1273
2023-02-02T06:03:34.327Z,1009
2023-02-02T06:05:34.357Z,1204
2023-02-02T06:06:34.218Z,1049
2023-02-02T06:07:34.221Z,832
2023-02-02T06:08:34.223Z,868
2023-02-02T06:09:34.215Z,774
2023-02-02T06:10:34.480Z,1084
2023-02-02T06:11:34.233Z,1013
2023-02-02T06:12:34.234Z,1078
2023-02-02T06:13:34.251Z,1046
2023-02-02T06:14:34.221Z,1082
2023-02-02T06:15:34.467Z,916
2023-02-02T06:16:34.249Z,927
2023-02-02T06:17:34.239Z,944
2023-02-02T06:18:34.236Z,974
2023-02-02T06:19:34.256Z,864
2023-02-02T06:20:34.371Z,949
2023-02-02T06:21:34.184Z,962
2023-02-02T06:22:34.214Z,899
2023-02-02T06:23:34.189Z,1075
2023-02-02T06:24:34.215Z,1059
2023-02-02T06:25:34.382Z,1116
2023-02-02T06:26:34.209Z,1100
2023-02-02T06:27:34.211Z,1043
2023-02-02T06:28:34.188Z,1065
2023-02-02T06:29:34.201Z,927
2023-02-02T06:30:34.411Z,821
2023-02-02T06:31:34.435Z,990
2023-02-02T06:32:34.223Z,962
2023-02-02T06:33:34.188Z,675
2023-02-02T06:34:34.245Z,885
2023-02-02T06:35:34.367Z,1013
2023-02-02T06:36:34.183Z,835
2023-02-02T06:37:34.250Z,892
2023-02-02T06:38:34.224Z,1027
2023-02-02T06:39:34.235Z,736
2023-02-02T06:40:34.443Z,1100
2023-02-02T06:41:34.237Z,1027
2023-02-02T06:42:34.262Z,1013
2023-02-02T06:43:34.245Z,1093
2023-02-02T06:44:34.203Z,1121
2023-02-02T06:45:34.418Z,679
2023-02-02T06:46:34.268Z,826
2023-02-02T06:47:34.248Z,837
2023-02-02T06:48:34.235Z,911
2023-02-02T06:49:34.229Z,617
2023-02-02T06:50:34.452Z,837
2023-02-02T06:51:34.239Z,617
2023-02-02T06:52:34.184Z,665
2023-02-02T06:53:34.207Z,617
2023-02-02T06:54:34.257Z,888
2023-02-02T06:55:34.389Z,874
2023-02-02T06:56:34.289Z,606
2023-02-02T06:57:34.250Z,606
2023-02-02T06:58:34.266Z,606
2023-02-02T06:59:34.240Z,606
2023-02-02T07:00:34.458Z,606
2023-02-02T07:01:34.226Z,738
2023-02-02T07:02:34.284Z,832
2023-02-02T07:03:34.211Z,704
2023-02-02T07:04:34.229Z,835
2023-02-02T07:05:34.418Z,679
2023-02-02T07:06:34.239Z,617
2023-02-02T07:07:34.232Z,617
2023-02-02T07:08:34.207Z,717
2023-02-02T07:09:34.233Z,992
2023-02-02T07:11:09.328Z,1250
2023-02-02T07:11:35.263Z,990
2023-02-02T07:12:34.247Z,901
2023-02-02T07:13:34.200Z,946
2023-02-02T07:14:34.231Z,1056
2023-02-02T07:15:34.384Z,788
2023-02-02T07:16:34.242Z,995
2023-02-02T07:17:34.232Z,981
2023-02-02T07:18:34.201Z,962
2023-02-02T07:19:34.245Z,624
2023-02-02T07:20:34.382Z,730
2023-02-02T07:21:34.247Z,799
2023-02-02T07:22:34.240Z,624
2023-02-02T07:23:34.229Z,845
2023-02-02T07:24:34.237Z,1046
2023-02-02T07:25:34.384Z,992
2023-02-02T07:26:34.246Z,935
2023-02-02T07:27:34.243Z,925
2023-02-02T07:28:34.204Z,892
2023-02-02T07:29:34.208Z,944
2023-02-02T07:30:34.406Z,940
2023-02-02T07:31:36.219Z,1113
2023-02-02T07:32:34.244Z,909
2023-02-02T07:33:34.248Z,738
2023-02-02T07:34:34.208Z,788
2023-02-02T07:35:34.409Z,1040
2023-02-02T07:36:34.255Z,1221
2023-02-02T07:37:34.260Z,1043
2023-02-02T07:38:34.273Z,992
2023-02-02T07:39:34.236Z,966
2023-02-02T07:40:34.382Z,786
2023-02-02T07:41:34.210Z,781
2023-02-02T07:42:34.280Z,717
2023-02-02T07:43:34.211Z,888
2023-02-02T07:44:34.247Z,909
2023-02-02T07:45:34.449Z,1049
2023-02-02T07:46:34.293Z,890
2023-02-02T07:47:34.212Z,1052
2023-02-02T07:48:34.213Z,821
2023-02-02T07:49:34.221Z,761
2023-02-02T07:50:34.416Z,698
2023-02-02T07:51:34.252Z,626
2023-02-02T07:52:34.214Z,899
2023-02-02T07:53:34.256Z,1056
2023-02-02T07:54:34.252Z,901
2023-02-02T07:55:34.408Z,930
2023-02-02T07:56:34.251Z,1040
2023-02-02T07:57:34.213Z,1147
2023-02-02T07:58:34.248Z,1002
2023-02-02T07:59:34.248Z,1124
2023-02-02T08:00:34.472Z,826
2023-02-02T08:01:34.224Z,741
2023-02-02T08:02:34.257Z,571
2023-02-02T08:03:34.268Z,909
2023-02-02T08:04:34.278Z,1106
2023-02-02T08:05:34.470Z,960
2023-02-02T08:06:34.267Z,857
2023-02-02T08:07:34.259Z,763
2023-02-02T08:08:34.273Z,815
2023-02-02T08:09:34.261Z,763
2023-02-02T08:10:34.462Z,1385
2023-02-02T08:11:34.295Z,1128
2023-02-02T08:12:34.272Z,983
2023-02-02T08:13:34.286Z,1221
2023-02-02T08:14:34.319Z,1004
2023-02-02T08:15:34.466Z,1068
2023-02-02T08:16:34.333Z,906
2023-02-02T08:17:34.257Z,698
2023-02-02T08:18:34.270Z,1004
2023-02-02T08:19:34.304Z,992
2023-02-02T08:20:34.483Z,1031
2023-02-02T08:21:34.231Z,830
2023-02-02T08:22:34.227Z,819
2023-02-02T08:23:34.223Z,882
2023-02-02T08:24:34.226Z,1281
2023-02-02T08:25:34.401Z,1565
2023-02-02T08:26:34.312Z,862
2023-02-02T08:27:35.757Z,890
2023-02-02T08:28:34.295Z,1150
2023-02-02T08:29:34.272Z,951
2023-02-02T08:30:34.507Z,1049
2023-02-02T08:31:34.339Z,857
2023-02-02T08:32:34.273Z,698
2023-02-02T08:33:34.273Z,792
2023-02-02T08:34:34.279Z,1109
2023-02-02T08:35:34.466Z,997
2023-02-02T08:36:34.299Z,712
2023-02-02T08:37:34.264Z,1056
2023-02-02T08:38:34.270Z,1116
2023-02-02T08:39:34.225Z,901
2023-02-02T08:40:34.443Z,1043
2023-02-02T08:41:34.235Z,960
2023-02-02T08:42:34.236Z,653
2023-02-02T08:43:34.270Z,707
2023-02-02T08:44:42.904Z,569
2023-02-02T08:46:00.664Z,786
2023-02-02T08:46:34.294Z,701
2023-02-02T08:47:34.233Z,683
2023-02-02T08:48:34.233Z,575
2023-02-02T08:49:34.274Z,462
2023-02-02T08:50:34.477Z,629
2023-02-02T08:51:34.278Z,594
2023-02-02T08:52:34.243Z,551
2023-02-02T08:53:34.280Z,420
2023-02-02T08:54:34.288Z,420
2023-02-02T08:55:34.476Z,497
2023-02-02T08:56:34.296Z,526
2023-02-02T08:57:34.294Z,578
2023-02-02T08:58:34.277Z,507
2023-02-02T08:59:34.288Z,507
2023-02-02T09:00:34.507Z,507
2023-02-02T09:01:34.291Z,507
2023-02-02T09:02:34.310Z,507
2023-02-02T09:03:34.280Z,507
2023-02-02T09:04:34.277Z,555
2023-02-02T09:05:34.423Z,597
2023-02-02T09:06:34.272Z,455
2023-02-02T09:07:34.240Z,501
2023-02-02T09:08:34.378Z,455
2023-02-02T09:09:34.304Z,455
2023-02-02T09:10:34.480Z,455
2023-02-02T09:11:34.327Z,507
2023-02-02T09:12:34.311Z,507
2023-02-02T09:13:34.295Z,507
2023-02-02T09:14:34.297Z,507
2023-02-02T09:15:34.479Z,507
2023-02-02T09:16:34.285Z,472
2023-02-02T09:17:34.249Z,435
2023-02-02T09:18:34.267Z,435
2023-02-02T09:19:34.315Z,439
2023-02-02T09:20:34.490Z,435
2023-02-02T09:21:34.287Z,442
2023-02-02T09:22:34.247Z,442
2023-02-02T09:23:34.241Z,503
2023-02-02T09:24:34.252Z,442
2023-02-02T09:25:34.432Z,477
2023-02-02T09:26:34.269Z,447
2023-02-02T09:27:34.252Z,413
2023-02-02T09:28:34.290Z,413
2023-02-02T09:29:34.245Z,413
2023-02-02T09:30:34.537Z,413
2023-02-02T09:31:34.327Z,478
2023-02-02T09:32:34.250Z,478
2023-02-02T09:33:34.300Z,478
2023-02-02T09:34:34.252Z,478
2023-02-02T09:35:34.438Z,478
2023-02-02T09:36:34.326Z,519
2023-02-02T09:37:34.252Z,531
2023-02-02T09:38:34.285Z,519
2023-02-02T09:39:34.332Z,519
2023-02-02T09:40:34.444Z,573
2023-02-02T09:41:34.285Z,435
2023-02-02T09:42:34.260Z,435
2023-02-02T09:43:34.252Z,435
2023-02-02T09:44:34.249Z,435
2023-02-02T09:45:34.469Z,435
2023-02-02T09:46:34.316Z,507
2023-02-02T09:47:34.252Z,507
2023-02-02T09:48:34.261Z,507
2023-02-02T09:49:34.251Z,507
2023-02-02T09:50:34.525Z,507
2023-02-02T09:51:34.304Z,597
2023-02-02T09:52:34.325Z,597
2023-02-02T09:53:36.570Z,597
2023-02-02T09:54:34.311Z,597
2023-02-02T09:55:34.534Z,597
2023-02-02T09:56:34.292Z,650
2023-02-02T09:57:34.301Z,650
2023-02-02T09:58:34.255Z,650
2023-02-02T09:59:34.292Z,650
2023-02-02T10:00:34.449Z,650
2023-02-02T10:01:34.371Z,589
2023-02-02T10:02:34.302Z,589
2023-02-02T10:03:34.340Z,589
2023-02-02T10:04:34.300Z,589
2023-02-02T10:05:34.566Z,589
2023-02-02T10:06:34.302Z,633
2023-02-02T10:07:34.306Z,633
2023-02-02T10:08:35.222Z,633
2023-02-02T10:09:34.264Z,633
2023-02-02T10:10:34.449Z,633
2023-02-02T10:11:34.265Z,634
2023-02-02T10:12:34.273Z,634
2023-02-02T10:13:34.298Z,634
2023-02-02T10:14:34.289Z,634
2023-02-02T10:15:34.530Z,634
2023-02-02T10:16:34.265Z,617
2023-02-02T10:17:34.310Z,617
2023-02-02T10:18:34.308Z,617
2023-02-02T10:19:34.298Z,617
2023-02-02T10:20:34.451Z,617
2023-02-02T10:21:34.271Z,624
2023-02-02T10:22:34.316Z,624
2023-02-02T10:23:34.262Z,624
2023-02-02T10:24:34.271Z,624
2023-02-02T10:25:34.506Z,624
2023-02-02T10:26:34.333Z,549
2023-02-02T10:27:34.267Z,549
2023-02-02T10:28:34.284Z,549
2023-02-02T10:29:47.953Z,549
2023-02-02T10:30:34.503Z,549
2023-02-02T10:31:34.410Z,541
2023-02-02T10:32:34.351Z,541
2023-02-02T10:33:34.337Z,541
2023-02-02T10:34:34.294Z,541
2023-02-02T10:35:34.546Z,541
2023-02-02T10:36:34.283Z,466
2023-02-02T10:37:34.313Z,466
2023-02-02T10:38:35.976Z,466
2023-02-02T10:39:34.281Z,466
2023-02-02T10:40:34.518Z,466
2023-02-02T10:41:34.346Z,518
2023-02-02T10:42:34.315Z,518
2023-02-02T10:43:34.309Z,518
2023-02-02T10:44:34.330Z,518
2023-02-02T10:45:34.447Z,518
2023-02-02T10:46:34.474Z,541
2023-02-02T10:47:34.271Z,541
2023-02-02T10:48:34.284Z,541
2023-02-02T10:49:34.290Z,541
2023-02-02T10:50:34.477Z,541
2023-02-02T10:51:34.326Z,549
2023-02-02T10:52:34.320Z,549
2023-02-02T10:53:34.317Z,549
2023-02-02T10:54:38.110Z,549
2023-02-02T10:55:34.543Z,549
2023-02-02T10:56:34.334Z,528
2023-02-02T10:57:34.323Z,528
2023-02-02T10:58:34.341Z,528
2023-02-02T10:59:34.344Z,528
2023-02-02T11:00:34.548Z,528
2023-02-02T11:01:34.564Z,528
2023-02-02T11:02:34.382Z,528
2023-02-02T11:03:34.343Z,528
2023-02-02T11:04:34.325Z,528
2023-02-02T11:05:34.468Z,528
2023-02-02T11:06:34.276Z,604
2023-02-02T11:07:34.285Z,604
2023-02-02T11:08:34.325Z,604
2023-02-02T11:09:34.280Z,604
2023-02-02T11:10:34.547Z,604
2023-02-02T11:11:34.328Z,591
2023-02-02T11:12:34.361Z,599
2023-02-02T11:13:34.320Z,591
2023-02-02T11:14:39.233Z,591
2023-02-02T11:15:34.592Z,591
2023-02-02T11:16:42.456Z,613
2023-02-02T11:17:34.285Z,613
2023-02-02T11:18:34.354Z,613
2023-02-02T11:19:34.348Z,666
2023-02-02T11:20:34.528Z,613
2023-02-02T11:21:34.335Z,613
2023-02-02T11:22:34.332Z,613
2023-02-02T11:23:34.335Z,674
2023-02-02T11:24:34.330Z,682
2023-02-02T11:25:34.568Z,627
2023-02-02T11:26:34.324Z,634
2023-02-02T11:27:34.373Z,736
2023-02-02T11:28:34.331Z,680
2023-02-02T11:29:34.328Z,738
2023-02-02T11:30:34.619Z,634
2023-02-02T11:31:34.443Z,803
2023-02-02T11:32:34.312Z,801
2023-02-02T11:33:34.301Z,715
2023-02-02T11:34:34.288Z,682
2023-02-02T11:35:34.531Z,707
2023-02-02T11:36:34.342Z,682
2023-02-02T11:37:34.341Z,693
2023-02-02T11:38:34.342Z,763
2023-02-02T11:39:34.346Z,761
2023-02-02T11:40:34.568Z,799
2023-02-02T11:41:34.292Z,591
2023-02-02T11:42:34.359Z,643
2023-02-02T11:43:34.332Z,665
2023-02-02T11:44:34.360Z,591
2023-02-02T11:45:34.549Z,591
2023-02-02T11:46:34.433Z,611
2023-02-02T11:47:34.398Z,597
2023-02-02T11:48:34.289Z,597
2023-02-02T11:49:34.336Z,597
2023-02-02T11:50:34.489Z,597
2023-02-02T11:51:34.329Z,613
2023-02-02T11:52:34.331Z,613
2023-02-02T11:53:34.299Z,613
2023-02-02T11:54:34.341Z,734
2023-02-02T11:55:34.566Z,765
2023-02-02T11:56:34.341Z,701
2023-02-02T11:57:34.349Z,792
2023-02-02T11:58:34.345Z,830
2023-02-02T11:59:34.335Z,774
2023-02-02T12:00:34.561Z,808
2023-02-02T12:01:34.344Z,715
2023-02-02T12:02:34.353Z,821
2023-02-02T12:03:34.329Z,828
2023-02-02T12:04:34.405Z,613
2023-02-02T12:05:34.489Z,613
2023-02-02T12:06:34.306Z,627
2023-02-02T12:07:34.305Z,627
2023-02-02T12:08:34.303Z,627
2023-02-02T12:09:34.341Z,640
2023-02-02T12:10:36.589Z,857
2023-02-02T12:11:34.302Z,821
2023-02-02T12:12:34.338Z,821
2023-02-02T12:13:34.349Z,927
2023-02-02T12:14:34.339Z,832
2023-02-02T12:15:34.492Z,901
2023-02-02T12:16:34.330Z,911
2023-02-02T12:17:34.307Z,874
2023-02-02T12:18:34.373Z,852
2023-02-02T12:19:34.307Z,828
2023-02-02T12:20:34.495Z,839
2023-02-02T12:21:34.343Z,788
2023-02-02T12:22:34.347Z,803
2023-02-02T12:23:34.306Z,788
2023-02-02T12:24:34.302Z,584
2023-02-02T12:25:34.570Z,584
2023-02-02T12:26:34.410Z,592
2023-02-02T12:27:34.350Z,591
2023-02-02T12:28:34.361Z,610
2023-02-02T12:29:34.378Z,601
2023-02-02T12:30:34.623Z,852
2023-02-02T12:31:34.412Z,914
2023-02-02T12:32:34.354Z,832
2023-02-02T12:33:34.316Z,810
2023-02-02T12:34:34.341Z,914
2023-02-02T12:35:34.492Z,911
2023-02-02T12:36:34.308Z,992
2023-02-02T12:37:34.350Z,969
2023-02-02T12:38:34.314Z,971
2023-02-02T12:39:34.430Z,755
2023-02-02T12:40:34.492Z,734
2023-02-02T12:41:34.352Z,753
2023-02-02T12:42:34.322Z,753
2023-02-02T12:43:34.320Z,774
2023-02-02T12:44:34.356Z,935
2023-02-02T12:45:34.537Z,1046
2023-02-02T12:46:34.317Z,962
2023-02-02T12:47:34.373Z,1018
2023-02-02T12:48:34.314Z,770
2023-02-02T12:49:34.386Z,794
2023-02-02T12:50:34.563Z,935
2023-02-02T12:51:34.379Z,1027
2023-02-02T12:52:34.312Z,992
2023-02-02T12:53:34.345Z,895
2023-02-02T12:54:44.322Z,611
2023-02-02T12:55:34.552Z,680
2023-02-02T12:56:34.349Z,794
2023-02-02T12:57:34.321Z,864
2023-02-02T12:58:34.323Z,835
2023-02-02T12:59:34.320Z,920
2023-02-02T13:00:34.500Z,794
2023-02-02T13:01:34.356Z,885
2023-02-02T13:02:34.400Z,916
2023-02-02T13:03:34.326Z,951
2023-02-02T13:07:39.523Z,981
2023-02-02T13:07:39.797Z,1062
2023-02-02T13:08:34.407Z,944
2023-02-02T13:10:34.507Z,1091
2023-02-02T13:11:34.323Z,1078
2023-02-02T13:12:34.390Z,1088
2023-02-02T13:13:34.320Z,864
2023-02-02T13:15:34.511Z,852
2023-02-02T13:16:34.367Z,882
2023-02-02T13:17:34.328Z,821
2023-02-02T13:18:34.332Z,904
2023-02-02T13:20:34.499Z,864
2023-02-02T13:21:34.320Z,832
2023-02-02T13:22:34.341Z,810
2023-02-02T13:23:34.314Z,1173
2023-02-02T13:25:34.545Z,1183
2023-02-02T13:26:34.437Z,1144
2023-02-02T13:27:34.368Z,1016
2023-02-02T13:28:34.324Z,1243
2023-02-02T13:30:34.582Z,1198
2023-02-02T13:31:34.475Z,1422
2023-02-02T13:32:34.392Z,1322
2023-02-02T13:33:34.328Z,1207
2023-02-02T13:35:34.526Z,1430
2023-02-02T13:36:34.381Z,1164
2023-02-02T13:37:34.331Z,1339
2023-02-02T13:38:34.339Z,1258
2023-02-02T13:40:34.570Z,995
2023-02-02T13:41:34.402Z,981
2023-02-02T13:42:36.005Z,1339
2023-02-02T13:43:34.340Z,1339
2023-02-02T13:45:34.582Z,1418
2023-02-02T13:46:34.386Z,1004
2023-02-02T13:47:34.345Z,1623
2023-02-02T13:48:34.370Z,1590
2023-02-02T13:50:34.514Z,1040
2023-02-02T13:51:34.372Z,1599
2023-02-02T13:52:34.388Z,1303
2023-02-02T13:53:34.401Z,1523
2023-02-02T13:55:34.633Z,1229
2023-02-02T13:56:34.370Z,1018
2023-02-02T13:57:34.382Z,971
2023-02-02T13:58:34.358Z,1007
2023-02-02T13:59:34.390Z,1007
2023-02-02T14:00:34.532Z,1134
2023-02-02T14:01:34.416Z,1038
2023-02-02T14:02:34.412Z,1414
2023-02-02T14:03:34.388Z,1474
2023-02-02T14:04:34.343Z,1239
2023-02-02T14:05:34.602Z,1528
2023-02-02T14:06:34.339Z,1627
2023-02-02T14:07:34.383Z,1141
2023-02-02T14:08:34.411Z,1059
2023-02-02T14:09:34.407Z,1414
2023-02-02T14:10:34.550Z,971
2023-02-02T14:11:34.409Z,1154
2023-02-02T14:12:34.337Z,981
2023-02-02T14:13:34.423Z,995
2023-02-02T14:14:34.376Z,916
2023-02-02T14:15:34.631Z,923
2023-02-02T14:16:34.381Z,1435
2023-02-02T14:17:34.378Z,1504
2023-02-02T14:18:34.384Z,1046
2023-02-02T14:19:34.391Z,1096
2023-02-02T14:20:34.580Z,1504
2023-02-02T14:21:34.362Z,1336
2023-02-02T14:22:34.386Z,1380
2023-02-02T14:23:34.344Z,940
2023-02-02T14:24:34.344Z,1367
2023-02-02T14:25:34.587Z,974
2023-02-02T14:26:34.456Z,1250
2023-02-02T14:27:34.519Z,1328
2023-02-02T14:28:34.380Z,1040
2023-02-02T14:29:34.381Z,997
2023-02-02T14:30:34.662Z,815
2023-02-02T14:31:34.467Z,828
2023-02-02T14:32:34.533Z,855
2023-02-02T14:33:34.359Z,1016
2023-02-02T14:34:34.391Z,1204
2023-02-02T14:35:34.618Z,1224
2023-02-02T14:36:34.398Z,880
2023-02-02T14:37:34.389Z,1144
2023-02-02T14:38:34.366Z,1109
2023-02-02T14:39:34.355Z,1109
2023-02-02T14:40:34.543Z,821
2023-02-02T14:41:34.385Z,1281
2023-02-02T14:42:34.404Z,1336
2023-02-02T14:43:34.391Z,880
2023-02-02T14:44:34.397Z,849
2023-02-02T14:45:34.596Z,1141
2023-02-02T14:46:34.398Z,1318
2023-02-02T14:47:34.357Z,1273
2023-02-02T14:48:34.402Z,911
2023-02-02T14:49:34.392Z,946